Terminal Aerodrome Forecast
Issued by NWS

Home | Current Version | Previous Version | Text Only | Print | Product List | Glossary On
Versions: 1 2 3 4 5 6 7 8 9 10 11 12 13 14 15 16 17 18
000
FTUS45 KTWC 250630 AAB
TAFOLS
TAF AMD
KOLS 250630Z 2507/2606 10012G25KT P6SM SCT120 BKN180
     FM251800 23012G18KT P6SM SCT090 SCT200
     FM252100 27009KT P6SM VCTS SCT120CB BKN180
     FM260200 15008KT P6SM SCT130 BKN200=

USA.gov is the U.S. government's official web portal to all federal, state and local government web resources and services.